Terminal Aerodrome Forecast
Issued by NWS

Home | Current Version | Previous Version | Text Only | Print | Product List | Glossary Off
Versions: 1 2 3 4 5 6 7 8 9 10 11 12

381
FTUS43 KICT 301123
TAFHUT
TAF
KHUT 301123Z 3012/0112 30011KT P6SM FEW080
     FM301600 30017G25KT P6SM FEW080
     FM010000 29005KT P6SM SKC=

USA.gov is the U.S. government's official web portal to all federal, state and local government web resources and services.